Time;durP1;ratioP1;P1;durP2;ratioP2;P2;SDS_P1;SDS_P2;PMS_P1;PMS_P2;Temp;Humidity;BMP_temperature;BMP_pressure;BME280_temperature;BME280_humidity;BME280_pressure;Samples;Min_cycle;Max_cycle;Signal;HPM_P1;HPM_P2
2023/12/28 00:00:38;;;;;;;1.90;1.80;;;;;;;;;;6384621;27;20301;-68
2023/12/28 00:03:43;;;;;;;2.77;1.93;;;;;;;;;;6385528;27;20300;-68
2023/12/28 00:06:48;;;;;;;1.90;1.80;;;;;;;;;;6385043;27;20287;-67
2023/12/28 00:09:52;;;;;;;4.10;2.00;;;;;;;;;;6383034;27;20315;-68
2023/12/28 00:12:57;;;;;;;2.93;2.10;;;;;;;;;;6373729;27;20290;-69
2023/12/28 00:16:02;;;;;;;1.97;1.87;;;;;;;;;;6385100;27;20307;-68
2023/12/28 00:19:06;;;;;;;4.73;1.97;;;;;;;;;;6384452;28;20312;-67
2023/12/28 00:22:11;;;;;;;1.80;1.57;;;;;;;;;;6384027;28;20593;-68
2023/12/28 00:25:15;;;;;;;2.07;1.93;;;;;;;;;;6384610;28;20287;-67
2023/12/28 00:28:21;;;;;;;3.30;2.00;;;;;;;;;;6379000;28;20295;-68
2023/12/28 00:31:25;;;;;;;2.60;1.87;;;;;;;;;;6340700;28;20368;-67
2023/12/28 00:34:31;;;;;;;1.90;1.80;;;;;;;;;;6358941;28;20310;-67
2023/12/28 00:37:36;;;;;;;2.10;1.50;;;;;;;;;;6340884;28;20588;-68
2023/12/28 00:40:39;;;;;;;2.00;1.90;;;;;;;;;;6358870;28;20300;-67
2023/12/28 00:43:45;;;;;;;2.23;1.90;;;;;;;;;;6359359;28;20323;-67
2023/12/28 00:46:49;;;;;;;2.07;1.90;;;;;;;;;;6358685;28;20297;-68
2023/12/28 00:49:52;;;;;;;4.33;2.10;;;;;;;;;;6340352;28;20308;-69
2023/12/28 00:52:57;;;;;;;1.93;1.83;;;;;;;;;;6359465;28;20287;-70
2023/12/28 00:56:01;;;;;;;3.13;1.57;;;;;;;;;;6358355;28;20292;-69
2023/12/28 00:59:06;;;;;;;1.87;1.83;;;;;;;;;;6358137;28;20244;-69
2023/12/28 01:02:10;;;;;;;2.03;1.93;;;;;;;;;;6359095;28;20564;-68
2023/12/28 01:05:14;;;;;;;1.83;1.83;;;;;;;;;;6358391;28;20440;-68
2023/12/28 01:08:18;;;;;;;1.90;1.90;;;;;;;;;;6363901;28;20236;-69
2023/12/28 01:11:22;;;;;;;2.00;1.83;;;;;;;;;;6345011;28;20560;-68
2023/12/28 01:14:28;;;;;;;4.00;1.90;;;;;;;;;;6363526;28;20291;-68
2023/12/28 01:17:32;;;;;;;2.43;2.10;;;;;;;;;;6362700;27;20285;-69
2023/12/28 01:20:36;;;;;;;1.80;1.80;;;;;;;;;;6379132;27;20464;-69
2023/12/28 01:23:40;;;;;;;1.70;1.70;;;;;;;;;;6370574;27;20465;-69
2023/12/28 01:26:44;;;;;;;5.23;1.77;;;;;;;;;;6388453;27;20534;-68
2023/12/28 01:29:50;;;;;;;1.90;1.80;;;;;;;;;;6351323;27;20374;-67
2023/12/28 01:32:54;;;;;;;4.37;2.10;;;;;;;;;;6369463;27;20284;-68
2023/12/28 01:35:58;;;;;;;1.97;1.90;;;;;;;;;;6363183;28;20292;-68
2023/12/28 01:39:02;;;;;;;3.23;1.97;;;;;;;;;;6336000;28;20573;-68
2023/12/28 01:42:06;;;;;;;1.97;1.90;;;;;;;;;;6344960;28;20288;-68
2023/12/28 01:45:12;;;;;;;2.70;2.00;;;;;;;;;;6352583;28;20293;-69
2023/12/28 01:48:16;;;;;;;2.30;1.80;;;;;;;;;;6337564;28;20296;-68
2023/12/28 01:51:21;;;;;;;2.93;1.70;;;;;;;;;;6337359;28;20303;-69
2023/12/28 01:54:25;;;;;;;2.67;2.13;;;;;;;;;;6333337;28;20289;-68
2023/12/28 01:57:29;;;;;;;2.73;1.90;;;;;;;;;;6337858;28;20300;-67
2023/12/28 02:00:37;;;;;;;2.60;1.87;;;;;;;;;;6334256;28;20301;-67
2023/12/28 02:03:42;;;;;;;3.03;1.80;;;;;;;;;;6327770;28;20293;-68
2023/12/28 02:06:49;;;;;;;2.17;1.97;;;;;;;;;;6328102;28;20297;-68
2023/12/28 02:09:54;;;;;;;3.43;1.97;;;;;;;;;;6328687;28;20293;-68
2023/12/28 02:12:58;;;;;;;1.80;1.80;;;;;;;;;;6316230;28;20294;-69
2023/12/28 02:16:07;;;;;;;2.10;2.00;;;;;;;;;;6304881;28;20293;-68
2023/12/28 02:19:20;;;;;;;2.23;2.03;;;;;;;;;;6304682;28;20489;-68
2023/12/28 02:22:26;;;;;;;3.07;1.93;;;;;;;;;;6339153;28;20293;-68
2023/12/28 02:25:32;;;;;;;2.03;1.90;;;;;;;;;;6343616;28;20295;-68
2023/12/28 02:28:36;;;;;;;7.27;2.20;;;;;;;;;;6379741;27;20307;-68
2023/12/28 02:31:44;;;;;;;1.83;1.80;;;;;;;;;;6412864;27;20294;-67
2023/12/28 02:34:49;;;;;;;1.93;1.80;;;;;;;;;;6395810;27;20299;-68
2023/12/28 02:37:59;;;;;;;1.77;1.67;;;;;;;;;;6368739;27;20299;-68
2023/12/28 02:41:05;;;;;;;1.70;1.60;;;;;;;;;;6366629;27;20354;-67
2023/12/28 02:44:09;;;;;;;1.97;1.87;;;;;;;;;;6368104;27;20283;-67
2023/12/28 02:47:14;;;;;;;2.00;2.00;;;;;;;;;;6387048;27;20244;-68
2023/12/28 02:50:18;;;;;;;1.50;1.50;;;;;;;;;;6368219;27;20295;-67
2023/12/28 02:53:22;;;;;;;2.00;1.90;;;;;;;;;;6368195;27;20298;-67
2023/12/28 02:56:27;;;;;;;1.87;1.80;;;;;;;;;;6367533;27;20421;-67
2023/12/28 02:59:31;;;;;;;1.70;1.67;;;;;;;;;;6385951;27;20308;-68
2023/12/28 03:02:37;;;;;;;4.43;1.90;;;;;;;;;;6386744;27;20312;-68
2023/12/28 03:05:43;;;;;;;1.57;1.53;;;;;;;;;;6384908;27;20295;-67
2023/12/28 03:08:47;;;;;;;1.93;1.43;;;;;;;;;;6368141;27;20286;-67
2023/12/28 03:11:52;;;;;;;1.77;1.77;;;;;;;;;;6378765;27;20290;-67
2023/12/28 03:14:58;;;;;;;1.77;1.67;;;;;;;;;;6411480;27;20286;-67
2023/12/28 03:18:02;;;;;;;1.80;1.70;;;;;;;;;;6411854;27;20294;-68
2023/12/28 03:21:07;;;;;;;2.17;1.80;;;;;;;;;;6383936;27;20596;-67
2023/12/28 03:24:11;;;;;;;1.63;1.47;;;;;;;;;;6385437;27;20382;-68
2023/12/28 03:27:16;;;;;;;2.37;1.80;;;;;;;;;;6386180;27;20494;-68
2023/12/28 03:30:20;;;;;;;1.80;1.40;;;;;;;;;;6360014;27;20286;-68
2023/12/28 03:33:24;;;;;;;1.90;1.80;;;;;;;;;;6360329;28;20300;-68
2023/12/28 03:36:28;;;;;;;2.53;1.80;;;;;;;;;;6374716;27;20298;-68
2023/12/28 03:39:33;;;;;;;1.90;1.57;;;;;;;;;;6366747;27;20287;-68
2023/12/28 03:42:39;;;;;;;2.13;1.90;;;;;;;;;;6385432;27;20313;-68
2023/12/28 03:45:43;;;;;;;2.00;1.80;;;;;;;;;;6385041;27;20481;-68
2023/12/28 03:48:47;;;;;;;1.87;1.60;;;;;;;;;;6385754;27;20295;-68
2023/12/28 03:51:52;;;;;;;1.80;1.80;;;;;;;;;;6385211;27;20290;-69
2023/12/28 03:54:56;;;;;;;2.40;1.60;;;;;;;;;;6367406;27;20393;-71
2023/12/28 03:58:01;;;;;;;1.50;1.50;;;;;;;;;;6385958;27;20293;-68
2023/12/28 04:01:05;;;;;;;1.80;1.70;;;;;;;;;;6375180;27;20298;-68
2023/12/28 04:04:10;;;;;;;2.53;1.70;;;;;;;;;;6367181;27;20311;-68
2023/12/28 04:07:16;;;;;;;3.07;1.77;;;;;;;;;;6359740;28;20290;-68
2023/12/28 04:10:30;;;;;;;2.03;1.73;;;;;;;;;;6359416;28;20319;-68
2023/12/28 04:13:35;;;;;;;1.73;1.63;;;;;;;;;;6366325;27;20298;-69
2023/12/28 04:16:39;;;;;;;1.80;1.60;;;;;;;;;;6366597;27;20323;-69
2023/12/28 04:19:43;;;;;;;1.80;1.70;;;;;;;;;;6386349;27;20290;-69
2023/12/28 04:22:47;;;;;;;2.63;1.50;;;;;;;;;;6366671;28;20564;-67
2023/12/28 04:25:51;;;;;;;2.17;1.80;;;;;;;;;;6382890;28;20299;-68
2023/12/28 04:28:57;;;;;;;1.87;1.80;;;;;;;;;;6370846;27;20298;-68
2023/12/28 04:32:01;;;;;;;1.73;1.63;;;;;;;;;;6390728;27;20302;-68
2023/12/28 04:35:06;;;;;;;2.47;1.80;;;;;;;;;;6391032;27;20295;-68
2023/12/28 04:38:10;;;;;;;1.43;1.40;;;;;;;;;;6349366;28;20301;-68
2023/12/28 04:41:14;;;;;;;2.00;1.90;;;;;;;;;;6343697;28;20294;-67
2023/12/28 04:44:19;;;;;;;2.70;1.87;;;;;;;;;;6362084;28;20286;-67
2023/12/28 04:47:23;;;;;;;3.53;1.50;;;;;;;;;;6360552;28;20290;-68
2023/12/28 04:50:27;;;;;;;1.60;1.50;;;;;;;;;;6345368;28;20295;-68
2023/12/28 04:53:31;;;;;;;2.87;1.40;;;;;;;;;;6364406;28;20291;-68
2023/12/28 04:56:36;;;;;;;2.30;1.60;;;;;;;;;;6345887;28;20296;-68
2023/12/28 04:59:41;;;;;;;1.63;1.53;;;;;;;;;;6363644;28;20288;-67
2023/12/28 05:02:45;;;;;;;1.67;1.57;;;;;;;;;;6345570;28;20572;-68
2023/12/28 05:05:49;;;;;;;1.40;1.40;;;;;;;;;;6361698;28;20349;-68
2023/12/28 05:08:53;;;;;;;2.03;1.40;;;;;;;;;;6364092;28;20288;-68
2023/12/28 05:11:57;;;;;;;1.40;1.30;;;;;;;;;;6388196;27;20293;-68
2023/12/28 05:15:04;;;;;;;1.33;1.33;;;;;;;;;;6413293;27;20294;-68
2023/12/28 05:18:08;;;;;;;4.20;1.70;;;;;;;;;;6413451;27;20294;-68
2023/12/28 05:21:13;;;;;;;4.33;1.50;;;;;;;;;;6414119;27;20298;-68
2023/12/28 05:24:17;;;;;;;2.67;1.30;;;;;;;;;;6414275;27;20290;-68
2023/12/28 05:27:21;;;;;;;2.03;1.50;;;;;;;;;;6395968;27;20455;-67
2023/12/28 05:30:26;;;;;;;1.57;1.47;;;;;;;;;;6389776;27;20291;-67
2023/12/28 05:33:30;;;;;;;2.77;1.63;;;;;;;;;;6364239;27;20486;-67
2023/12/28 05:36:34;;;;;;;1.40;1.40;;;;;;;;;;6387779;27;20310;-68
2023/12/28 05:39:38;;;;;;;1.30;1.30;;;;;;;;;;6388476;27;20289;-67
2023/12/28 05:42:42;;;;;;;2.83;1.43;;;;;;;;;;6388527;27;20295;-68
2023/12/28 05:45:48;;;;;;;1.63;1.63;;;;;;;;;;6387661;27;20300;-67
2023/12/28 05:48:52;;;;;;;2.37;1.40;;;;;;;;;;6388511;27;20301;-67
2023/12/28 05:51:56;;;;;;;3.70;1.43;;;;;;;;;;6387689;27;20291;-67
2023/12/28 05:55:00;;;;;;;1.67;1.57;;;;;;;;;;6387761;27;20371;-67
2023/12/28 05:58:04;;;;;;;3.67;1.40;;;;;;;;;;6388058;27;20446;-67
2023/12/28 06:01:09;;;;;;;2.27;1.80;;;;;;;;;;6387665;27;20296;-68
2023/12/28 06:04:13;;;;;;;1.40;1.40;;;;;;;;;;6388003;27;20297;-68
2023/12/28 06:07:17;;;;;;;2.00;1.30;;;;;;;;;;6388402;27;20296;-67
2023/12/28 06:10:21;;;;;;;1.20;1.20;;;;;;;;;;6387159;27;20293;-68
2023/12/28 06:13:26;;;;;;;1.60;1.50;;;;;;;;;;6361717;28;20304;-67
2023/12/28 06:16:33;;;;;;;1.97;1.63;;;;;;;;;;6361727;28;20288;-67
2023/12/28 06:19:37;;;;;;;3.40;1.57;;;;;;;;;;6357303;28;20289;-67
2023/12/28 06:22:41;;;;;;;3.77;1.37;;;;;;;;;;6358970;28;20373;-67
2023/12/28 06:25:45;;;;;;;1.60;1.50;;;;;;;;;;6361340;27;20316;-67
2023/12/28 06:28:49;;;;;;;4.07;1.47;;;;;;;;;;6372416;27;20285;-67
2023/12/28 06:31:54;;;;;;;1.33;1.23;;;;;;;;;;6386770;27;20296;-67
2023/12/28 06:34:58;;;;;;;3.00;1.30;;;;;;;;;;6386542;27;20288;-68
2023/12/28 06:38:02;;;;;;;2.13;1.57;;;;;;;;;;6386049;27;20268;-68
2023/12/28 06:41:12;;;;;;;2.73;1.50;;;;;;;;;;6386451;27;20318;-69
2023/12/28 06:44:16;;;;;;;1.70;1.23;;;;;;;;;;6386307;27;20241;-67
2023/12/28 06:47:21;;;;;;;1.93;1.47;;;;;;;;;;6386410;27;20257;-67
2023/12/28 06:50:25;;;;;;;7.60;1.33;;;;;;;;;;6386146;27;20288;-67
2023/12/28 06:53:29;;;;;;;3.40;1.80;;;;;;;;;;6386611;27;20292;-67
2023/12/28 06:56:33;;;;;;;3.00;1.37;;;;;;;;;;6384603;27;20284;-67
2023/12/28 06:59:37;;;;;;;2.80;1.30;;;;;;;;;;6385928;27;20283;-68
2023/12/28 07:02:42;;;;;;;4.53;1.60;;;;;;;;;;6386455;27;20457;-67
2023/12/28 07:05:46;;;;;;;1.50;1.50;;;;;;;;;;6384700;27;20292;-67
2023/12/28 07:08:53;;;;;;;3.50;1.47;;;;;;;;;;6387014;27;20307;-69
2023/12/28 07:11:57;;;;;;;2.37;1.30;;;;;;;;;;6386941;27;20296;-67
2023/12/28 07:15:01;;;;;;;1.60;1.50;;;;;;;;;;6387911;27;20291;-68
2023/12/28 07:18:07;;;;;;;2.77;1.47;;;;;;;;;;6386832;27;20293;-69
2023/12/28 07:21:11;;;;;;;5.10;1.43;;;;;;;;;;6398242;27;20289;-68
2023/12/28 07:24:15;;;;;;;2.17;1.20;;;;;;;;;;6411356;27;20289;-68
2023/12/28 07:27:19;;;;;;;4.57;1.50;;;;;;;;;;6411677;27;20289;-68
2023/12/28 07:30:23;;;;;;;2.47;1.70;;;;;;;;;;6375287;27;20295;-68
2023/12/28 07:33:28;;;;;;;3.00;1.33;;;;;;;;;;6354959;28;20285;-67
2023/12/28 07:36:32;;;;;;;1.40;1.30;;;;;;;;;;6334773;28;20285;-67
2023/12/28 07:39:36;;;;;;;2.23;1.20;;;;;;;;;;6334331;28;20288;-68
2023/12/28 07:42:40;;;;;;;1.40;1.40;;;;;;;;;;6335311;28;20380;-68
2023/12/28 07:45:44;;;;;;;1.77;1.53;;;;;;;;;;6334442;28;20289;-68
2023/12/28 07:48:50;;;;;;;1.50;1.40;;;;;;;;;;6349608;28;20304;-68
2023/12/28 07:51:54;;;;;;;1.33;1.33;;;;;;;;;;6359778;28;20291;-68
2023/12/28 07:54:59;;;;;;;3.30;1.40;;;;;;;;;;6359665;27;20298;-69
2023/12/28 07:58:03;;;;;;;2.67;1.30;;;;;;;;;;6360083;28;20582;-68
2023/12/28 08:01:11;;;;;;;3.07;1.33;;;;;;;;;;6359598;28;20293;-69
2023/12/28 08:04:17;;;;;;;2.47;1.40;;;;;;;;;;6359500;28;20285;-69
2023/12/28 08:07:21;;;;;;;1.83;1.40;;;;;;;;;;6363700;27;20294;-68
2023/12/28 08:10:25;;;;;;;1.30;1.20;;;;;;;;;;6385268;27;20292;-69
2023/12/28 08:13:29;;;;;;;2.20;1.10;;;;;;;;;;6411114;27;20555;-69
2023/12/28 08:16:34;;;;;;;1.43;1.13;;;;;;;;;;6410409;27;20634;-68
2023/12/28 08:19:40;;;;;;;1.47;1.10;;;;;;;;;;6408984;27;20293;-69
2023/12/28 08:22:44;;;;;;;2.93;1.10;;;;;;;;;;6410860;27;20293;-69
2023/12/28 08:25:48;;;;;;;1.77;1.13;;;;;;;;;;6391663;27;20308;-68
2023/12/28 08:28:52;;;;;;;3.20;1.30;;;;;;;;;;6399743;27;20297;-69
2023/12/28 08:31:56;;;;;;;3.73;1.40;;;;;;;;;;6385035;27;20288;-69
2023/12/28 08:35:02;;;;;;;1.30;1.20;;;;;;;;;;6383949;27;20284;-71
2023/12/28 08:38:07;;;;;;;2.27;1.63;;;;;;;;;;6385089;27;20252;-69
2023/12/28 08:41:19;;;;;;;1.00;1.00;;;;;;;;;;6385037;27;20311;-68
2023/12/28 08:44:23;;;;;;;0.97;0.97;;;;;;;;;;6384444;27;20296;-68
2023/12/28 08:47:27;;;;;;;1.70;1.00;;;;;;;;;;6384697;28;20303;-68
2023/12/28 08:50:32;;;;;;;1.97;1.33;;;;;;;;;;6384640;28;20285;-69
2023/12/28 08:53:36;;;;;;;1.20;1.10;;;;;;;;;;6384727;28;20295;-69
2023/12/28 08:56:40;;;;;;;1.17;1.17;;;;;;;;;;6384592;28;20284;-69
2023/12/28 08:59:44;;;;;;;1.83;0.93;;;;;;;;;;6384067;28;20358;-68
2023/12/28 09:02:48;;;;;;;3.70;1.00;;;;;;;;;;6385035;28;20299;-68
2023/12/28 09:05:53;;;;;;;2.60;1.10;;;;;;;;;;6384509;28;20571;-67
2023/12/28 09:08:57;;;;;;;0.93;0.90;;;;;;;;;;6384334;28;20288;-67
2023/12/28 09:12:01;;;;;;;2.53;1.10;;;;;;;;;;6398809;27;20599;-67
2023/12/28 09:15:06;;;;;;;1.20;1.10;;;;;;;;;;6409986;27;20291;-67
2023/12/28 09:18:10;;;;;;;3.40;1.00;;;;;;;;;;6410602;27;20295;-67
2023/12/28 09:21:16;;;;;;;1.40;0.97;;;;;;;;;;6409845;27;20284;-68
2023/12/28 09:24:20;;;;;;;1.00;1.00;;;;;;;;;;6391056;27;20294;-68
2023/12/28 09:27:24;;;;;;;1.90;0.90;;;;;;;;;;6411495;27;20291;-68
2023/12/28 09:30:29;;;;;;;0.90;0.90;;;;;;;;;;6388057;27;20584;-69
2023/12/28 09:33:35;;;;;;;1.00;1.00;;;;;;;;;;6388916;27;20295;-69
2023/12/28 09:36:40;;;;;;;1.80;0.90;;;;;;;;;;6388699;27;20312;-69
2023/12/28 09:39:44;;;;;;;1.43;1.00;;;;;;;;;;6388296;27;20292;-69
2023/12/28 09:42:54;;;;;;;1.10;1.10;;;;;;;;;;6388700;27;20292;-69
2023/12/28 09:45:58;;;;;;;1.10;0.97;;;;;;;;;;6388178;27;20290;-69
2023/12/28 09:49:03;;;;;;;1.00;1.00;;;;;;;;;;6386673;27;20292;-68
2023/12/28 09:52:09;;;;;;;1.07;1.07;;;;;;;;;;6388174;27;20292;-68
2023/12/28 09:55:13;;;;;;;1.93;1.20;;;;;;;;;;6388123;27;20304;-68
2023/12/28 09:58:18;;;;;;;1.57;1.13;;;;;;;;;;6388775;27;20315;-68
2023/12/28 10:01:23;;;;;;;0.83;0.83;;;;;;;;;;6387593;27;20292;-68
2023/12/28 10:04:28;;;;;;;0.80;0.80;;;;;;;;;;6386208;27;20409;-68
2023/12/28 10:07:41;;;;;;;0.90;0.90;;;;;;;;;;6387717;27;20468;-67
2023/12/28 10:10:50;;;;;;;0.87;0.87;;;;;;;;;;6391630;27;20291;-68
2023/12/28 10:13:55;;;;;;;1.50;0.90;;;;;;;;;;6414109;27;20296;-69
2023/12/28 10:16:59;;;;;;;1.00;1.00;;;;;;;;;;6413543;27;20298;-68
2023/12/28 10:20:06;;;;;;;1.00;1.00;;;;;;;;;;6411979;27;20301;-66
2023/12/28 10:23:12;;;;;;;0.90;0.90;;;;;;;;;;6413500;27;20247;-68
2023/12/28 10:26:18;;;;;;;0.90;0.90;;;;;;;;;;6413247;27;20311;-66
2023/12/28 10:29:25;;;;;;;0.87;0.87;;;;;;;;;;6397553;27;20296;-67
2023/12/28 10:32:30;;;;;;;0.90;0.90;;;;;;;;;;6386018;27;20557;-67
2023/12/28 10:35:35;;;;;;;0.90;0.90;;;;;;;;;;6386781;27;20617;-67
2023/12/28 10:38:42;;;;;;;1.33;1.00;;;;;;;;;;6387538;27;20294;-67
2023/12/28 10:41:50;;;;;;;2.07;0.80;;;;;;;;;;6387208;27;20292;-67
2023/12/28 10:44:57;;;;;;;0.90;0.90;;;;;;;;;;6386928;27;20285;-68
2023/12/28 10:48:07;;;;;;;0.80;0.80;;;;;;;;;;6387381;27;20314;-68
2023/12/28 10:51:11;;;;;;;0.83;0.70;;;;;;;;;;6386802;27;20476;-67
2023/12/28 10:54:25;;;;;;;0.83;0.83;;;;;;;;;;6386975;27;20289;-66
2023/12/28 10:57:32;;;;;;;0.80;0.80;;;;;;;;;;6387170;27;20292;-67
2023/12/28 11:00:38;;;;;;;0.70;0.70;;;;;;;;;;6367819;27;20296;-67
2023/12/28 11:03:42;;;;;;;1.20;0.80;;;;;;;;;;6386616;27;20310;-66
2023/12/28 11:06:47;;;;;;;0.80;0.80;;;;;;;;;;6386534;27;20290;-68
2023/12/28 11:09:55;;;;;;;0.80;0.80;;;;;;;;;;6385973;27;20290;-67
2023/12/28 11:12:59;;;;;;;1.50;0.70;;;;;;;;;;6409749;27;20288;-67
2023/12/28 11:16:05;;;;;;;1.00;1.00;;;;;;;;;;6411870;27;20372;-67
2023/12/28 11:19:09;;;;;;;1.33;0.90;;;;;;;;;;6392889;27;20496;-68
2023/12/28 11:22:13;;;;;;;0.90;0.90;;;;;;;;;;6412270;27;20476;-68
2023/12/28 11:25:19;;;;;;;0.90;0.90;;;;;;;;;;6411888;27;20292;-68
2023/12/28 11:28:24;;;;;;;0.90;0.90;;;;;;;;;;6405130;27;20294;-69
2023/12/28 11:31:28;;;;;;;1.20;0.90;;;;;;;;;;6386062;27;20479;-67
2023/12/28 11:34:33;;;;;;;1.63;0.93;;;;;;;;;;6385497;27;20290;-66
2023/12/28 11:37:40;;;;;;;1.43;1.43;;;;;;;;;;6386494;27;20285;-67
2023/12/28 11:40:47;;;;;;;0.80;0.80;;;;;;;;;;6386049;27;20302;-69
2023/12/28 11:43:55;;;;;;;1.03;1.03;;;;;;;;;;6386007;27;20313;-66
2023/12/28 11:46:59;;;;;;;1.50;1.00;;;;;;;;;;6385401;27;20298;-67
2023/12/28 11:50:08;;;;;;;0.97;0.97;;;;;;;;;;6384431;27;20291;-67
2023/12/28 11:53:13;;;;;;;1.93;1.07;;;;;;;;;;6384463;27;20458;-69
2023/12/28 11:56:18;;;;;;;1.77;1.03;;;;;;;;;;6385609;27;20295;-68
2023/12/28 11:59:23;;;;;;;0.90;0.90;;;;;;;;;;6385457;27;20293;-67
2023/12/28 12:02:27;;;;;;;1.00;1.00;;;;;;;;;;6386209;27;20290;-68
2023/12/28 12:05:31;;;;;;;3.53;1.10;;;;;;;;;;6385243;27;20305;-68
2023/12/28 12:08:38;;;;;;;1.50;1.00;;;;;;;;;;6386541;27;20302;-68
2023/12/28 12:11:46;;;;;;;1.17;1.13;;;;;;;;;;6397244;27;20285;-68
2023/12/28 12:14:50;;;;;;;1.23;1.13;;;;;;;;;;6410938;27;20311;-69
2023/12/28 12:17:54;;;;;;;2.27;1.20;;;;;;;;;;6412503;27;20290;-68
2023/12/28 12:20:58;;;;;;;2.20;1.10;;;;;;;;;;6411080;27;20301;-67
2023/12/28 12:24:02;;;;;;;1.50;1.40;;;;;;;;;;6411234;27;20302;-67
2023/12/28 12:27:08;;;;;;;3.17;1.47;;;;;;;;;;6410760;27;20301;-67
2023/12/28 12:30:13;;;;;;;1.50;1.37;;;;;;;;;;6386660;27;20590;-67
2023/12/28 12:33:17;;;;;;;8.07;1.80;;;;;;;;;;6368223;28;20288;-68
2023/12/28 12:36:21;;;;;;;1.50;1.40;;;;;;;;;;6385102;27;20285;-67
2023/12/28 12:39:25;;;;;;;2.10;1.40;;;;;;;;;;6384792;27;20482;-67
2023/12/28 12:42:31;;;;;;;1.73;1.60;;;;;;;;;;6385605;28;20302;-67
2023/12/28 12:45:35;;;;;;;1.60;1.50;;;;;;;;;;6384612;27;20298;-67
2023/12/28 12:48:40;;;;;;;1.87;1.70;;;;;;;;;;6385268;27;20283;-67
2023/12/28 12:51:46;;;;;;;8.00;2.03;;;;;;;;;;6384827;28;20291;-67
2023/12/28 12:54:54;;;;;;;2.27;2.03;;;;;;;;;;6385091;27;20288;-68
2023/12/28 12:58:00;;;;;;;3.63;2.30;;;;;;;;;;6385182;27;20293;-67
2023/12/28 13:01:04;;;;;;;6.93;2.60;;;;;;;;;;6384695;27;20468;-66
2023/12/28 13:04:08;;;;;;;2.30;2.20;;;;;;;;;;6370355;27;20282;-66
2023/12/28 13:07:12;;;;;;;4.13;2.30;;;;;;;;;;6388646;27;20290;-66
2023/12/28 13:10:16;;;;;;;4.80;3.17;;;;;;;;;;6389109;27;20303;-66
2023/12/28 13:13:21;;;;;;;3.77;3.13;;;;;;;;;;6390135;27;20293;-66
2023/12/28 13:16:25;;;;;;;4.93;2.87;;;;;;;;;;6389121;27;20295;-67
2023/12/28 13:19:29;;;;;;;6.83;2.90;;;;;;;;;;6388962;27;20300;-66
2023/12/28 13:22:33;;;;;;;3.93;3.30;;;;;;;;;;6370042;27;20295;-67
2023/12/28 13:25:38;;;;;;;3.23;3.03;;;;;;;;;;6389111;27;20327;-67
2023/12/28 13:28:43;;;;;;;11.67;3.97;;;;;;;;;;6379866;27;20292;-67
2023/12/28 13:31:50;;;;;;;7.13;4.07;;;;;;;;;;6363365;27;20385;-67
2023/12/28 13:34:55;;;;;;;6.47;4.20;;;;;;;;;;6363383;28;20292;-67
2023/12/28 13:38:02;;;;;;;7.73;4.17;;;;;;;;;;6378685;27;20448;-66
2023/12/28 13:41:06;;;;;;;14.07;4.20;;;;;;;;;;6363350;28;20303;-67
2023/12/28 13:44:12;;;;;;;7.27;4.50;;;;;;;;;;6362986;28;20266;-67
2023/12/28 13:47:16;;;;;;;13.07;4.80;;;;;;;;;;6363369;28;20262;-67
2023/12/28 13:50:20;;;;;;;13.07;4.97;;;;;;;;;;6363020;28;23004;-67
2023/12/28 13:53:24;;;;;;;15.50;5.33;;;;;;;;;;6363268;28;20342;-67
2023/12/28 13:56:28;;;;;;;9.40;5.10;;;;;;;;;;6363150;27;20287;-66
2023/12/28 13:59:33;;;;;;;14.53;5.30;;;;;;;;;;6362710;28;20290;-66
2023/12/28 14:02:37;;;;;;;12.47;5.60;;;;;;;;;;6363254;28;20300;-66
2023/12/28 14:05:42;;;;;;;14.53;5.77;;;;;;;;;;6362761;28;20288;-66
2023/12/28 14:08:46;;;;;;;11.80;6.00;;;;;;;;;;6355038;28;20451;-66
2023/12/28 14:11:50;;;;;;;11.83;5.97;;;;;;;;;;6349332;27;20300;-67
2023/12/28 14:14:56;;;;;;;15.23;6.70;;;;;;;;;;6336349;28;20288;-67
2023/12/28 14:18:00;;;;;;;17.30;6.90;;;;;;;;;;6346866;28;20292;-67
2023/12/28 14:21:04;;;;;;;20.03;7.20;;;;;;;;;;6361871;27;20299;-67
2023/12/28 14:24:10;;;;;;;24.83;7.63;;;;;;;;;;6362678;27;20292;-67
2023/12/28 14:27:14;;;;;;;19.60;8.60;;;;;;;;;;6361745;27;20323;-65
2023/12/28 14:30:21;;;;;;;18.93;7.37;;;;;;;;;;6385134;27;20300;-66
2023/12/28 14:33:25;;;;;;;17.20;7.67;;;;;;;;;;6388354;27;20583;-66
2023/12/28 14:36:32;;;;;;;18.80;7.57;;;;;;;;;;6387840;27;20591;-66
2023/12/28 14:39:37;;;;;;;14.60;7.20;;;;;;;;;;6387432;27;20471;-65
2023/12/28 14:42:41;;;;;;;20.27;7.10;;;;;;;;;;6388137;27;20306;-67
2023/12/28 14:45:47;;;;;;;12.83;6.50;;;;;;;;;;6387245;27;20299;-68
2023/12/28 14:48:52;;;;;;;7.17;5.40;;;;;;;;;;6388096;27;20292;-68
2023/12/28 14:51:56;;;;;;;10.60;5.97;;;;;;;;;;6387520;27;20307;-68
2023/12/28 14:55:00;;;;;;;9.00;5.10;;;;;;;;;;6367091;27;20295;-68
2023/12/28 14:58:04;;;;;;;13.37;5.30;;;;;;;;;;6361978;28;20292;-67
2023/12/28 15:01:10;;;;;;;8.40;4.43;;;;;;;;;;6361234;28;20619;-67
2023/12/28 15:04:14;;;;;;;7.40;4.47;;;;;;;;;;6361001;28;20460;-69
2023/12/28 15:07:19;;;;;;;5.83;3.77;;;;;;;;;;6361979;28;20556;-67
2023/12/28 15:10:23;;;;;;;4.67;3.90;;;;;;;;;;6361060;28;20300;-68
2023/12/28 15:13:28;;;;;;;6.40;4.20;;;;;;;;;;6361259;28;20288;-67
2023/12/28 15:16:35;;;;;;;3.80;3.00;;;;;;;;;;6361093;28;20300;-67
2023/12/28 15:19:39;;;;;;;5.50;3.07;;;;;;;;;;6366519;27;20596;-67
2023/12/28 15:22:43;;;;;;;3.50;3.10;;;;;;;;;;6386929;27;20561;-67
2023/12/28 15:25:47;;;;;;;5.57;3.10;;;;;;;;;;6386253;27;20438;-68
2023/12/28 15:28:52;;;;;;;3.10;2.87;;;;;;;;;;6386154;27;20298;-67
2023/12/28 15:31:57;;;;;;;5.03;2.57;;;;;;;;;;6386228;27;20295;-67
2023/12/28 15:35:01;;;;;;;4.90;2.90;;;;;;;;;;6386010;27;20271;-68
2023/12/28 15:38:09;;;;;;;5.30;2.80;;;;;;;;;;6385952;27;20299;-67
2023/12/28 15:41:13;;;;;;;3.07;2.57;;;;;;;;;;6386560;27;20243;-67
2023/12/28 15:44:17;;;;;;;2.93;2.60;;;;;;;;;;6385588;27;20287;-69
2023/12/28 15:47:24;;;;;;;4.57;2.67;;;;;;;;;;6385624;27;20580;-68
2023/12/28 15:50:28;;;;;;;2.80;2.57;;;;;;;;;;6386960;27;20295;-67
2023/12/28 15:53:33;;;;;;;4.23;2.33;;;;;;;;;;6378206;27;20291;-69
2023/12/28 15:56:36;;;;;;;3.73;2.23;;;;;;;;;;6360877;28;20284;-68
2023/12/28 15:59:40;;;;;;;2.10;2.00;;;;;;;;;;6360013;28;20292;-68
2023/12/28 16:02:46;;;;;;;3.77;2.33;;;;;;;;;;6357705;28;20291;-68
2023/12/28 16:05:50;;;;;;;2.20;2.10;;;;;;;;;;6360678;28;20291;-68
2023/12/28 16:08:54;;;;;;;4.30;2.30;;;;;;;;;;6360100;28;20394;-68
2023/12/28 16:11:57;;;;;;;4.47;2.33;;;;;;;;;;6327751;28;20569;-67
2023/12/28 16:15:02;;;;;;;4.90;2.67;;;;;;;;;;6335129;28;20300;-67
2023/12/28 16:18:08;;;;;;;2.47;2.37;;;;;;;;;;6334147;28;20296;-67
2023/12/28 16:21:13;;;;;;;3.37;2.43;;;;;;;;;;6334794;28;20293;-68
2023/12/28 16:24:17;;;;;;;2.43;2.33;;;;;;;;;;6334194;28;20359;-68
2023/12/28 16:27:21;;;;;;;2.40;2.00;;;;;;;;;;6334578;28;20293;-68
2023/12/28 16:30:25;;;;;;;3.23;1.90;;;;;;;;;;6358870;28;20297;-68
2023/12/28 16:33:30;;;;;;;4.23;2.07;;;;;;;;;;6340801;28;20296;-67
2023/12/28 16:36:34;;;;;;;2.37;2.27;;;;;;;;;;6361655;28;20294;-67
2023/12/28 16:39:38;;;;;;;2.00;1.97;;;;;;;;;;6364839;28;20293;-67
2023/12/28 16:42:42;;;;;;;3.40;2.10;;;;;;;;;;6351481;28;20301;-67
2023/12/28 16:45:47;;;;;;;2.53;2.03;;;;;;;;;;6339436;28;20304;-67
2023/12/28 16:48:52;;;;;;;3.97;2.23;;;;;;;;;;6336999;28;20297;-70
2023/12/28 16:51:56;;;;;;;2.07;1.90;;;;;;;;;;6331080;28;20432;-68
2023/12/28 16:55:00;;;;;;;2.77;2.30;;;;;;;;;;6359424;28;20299;-66
2023/12/28 16:58:05;;;;;;;3.97;2.67;;;;;;;;;;6363809;28;20475;-68
2023/12/28 17:01:08;;;;;;;2.60;2.50;;;;;;;;;;6365013;28;20297;-68
2023/12/28 17:04:14;;;;;;;3.47;2.83;;;;;;;;;;6363881;28;20384;-67
2023/12/28 17:07:19;;;;;;;5.90;2.50;;;;;;;;;;6362644;28;20560;-68
2023/12/28 17:10:24;;;;;;;2.97;2.77;;;;;;;;;;6364507;28;20296;-68
2023/12/28 17:13:30;;;;;;;3.03;2.83;;;;;;;;;;6361929;28;20305;-68
2023/12/28 17:16:35;;;;;;;6.35;3.28;;;;;;;;;;6364732;28;20289;-68
2023/12/28 17:19:41;;;;;;;4.20;3.53;;;;;;;;;;6362576;27;20301;-67
2023/12/28 17:22:48;;;;;;;5.93;3.07;;;;;;;;;;6346287;28;20464;-67
2023/12/28 17:25:56;;;;;;;3.13;2.93;;;;;;;;;;6364573;28;20289;-67
2023/12/28 17:29:05;;;;;;;8.23;3.37;;;;;;;;;;6361740;27;20289;-67
2023/12/28 17:32:11;;;;;;;6.87;3.77;;;;;;;;;;6343766;28;20731;-67
2023/12/28 17:35:18;;;;;;;9.20;3.63;;;;;;;;;;6363748;28;20237;-67
2023/12/28 17:38:25;;;;;;;3.23;3.03;;;;;;;;;;6344844;28;20277;-68
2023/12/28 17:41:31;;;;;;;8.20;3.80;;;;;;;;;;6362772;28;20313;-67
2023/12/28 17:44:39;;;;;;;9.13;3.90;;;;;;;;;;6363087;28;20292;-68
2023/12/28 17:47:47;;;;;;;4.03;3.70;;;;;;;;;;6362042;28;20293;-67
2023/12/28 17:50:54;;;;;;;4.10;3.70;;;;;;;;;;6363566;28;20288;-67
2023/12/28 17:53:58;;;;;;;8.83;2.90;;;;;;;;;;6362380;28;20341;-67
2023/12/28 17:57:02;;;;;;;4.23;3.27;;;;;;;;;;6362476;28;20368;-67
2023/12/28 18:00:08;;;;;;;4.70;3.63;;;;;;;;;;6363374;28;20379;-67
2023/12/28 18:03:12;;;;;;;3.70;3.50;;;;;;;;;;6362454;28;20308;-67
2023/12/28 18:06:17;;;;;;;6.43;3.60;;;;;;;;;;6363052;28;20293;-67
2023/12/28 18:09:21;;;;;;;10.60;4.20;;;;;;;;;;6362429;28;20304;-68
2023/12/28 18:12:26;;;;;;;4.10;3.80;;;;;;;;;;6344530;28;20298;-68
2023/12/28 18:15:30;;;;;;;5.10;3.40;;;;;;;;;;6337373;28;20294;-68
2023/12/28 18:18:34;;;;;;;7.17;3.50;;;;;;;;;;6336609;28;20440;-68
2023/12/28 18:21:40;;;;;;;6.10;3.40;;;;;;;;;;6360776;28;20295;-68
2023/12/28 18:24:44;;;;;;;5.13;4.03;;;;;;;;;;6351764;28;20288;-68
2023/12/28 18:27:48;;;;;;;3.50;3.20;;;;;;;;;;6363820;27;20293;-67